sensor_id;sensor_type;location;lat;lon;timestamp;temperature;humidity
60473;DHT22;46318;52.716;6.444;2023-05-18T00:00:38;7.40;97.50
60473;DHT22;46318;52.716;6.444;2023-05-18T00:03:04;7.30;97.50
60473;DHT22;46318;52.716;6.444;2023-05-18T00:05:31;7.30;97.60
60473;DHT22;46318;52.716;6.444;2023-05-18T00:07:59;7.30;97.50
60473;DHT22;46318;52.716;6.444;2023-05-18T00:10:25;7.20;97.70
60473;DHT22;46318;52.716;6.444;2023-05-18T00:12:51;7.20;97.80
60473;DHT22;46318;52.716;6.444;2023-05-18T00:15:17;7.10;97.90
60473;DHT22;46318;52.716;6.444;2023-05-18T00:17:43;7.10;97.90
60473;DHT22;46318;52.716;6.444;2023-05-18T00:20:10;7.10;98.10
60473;DHT22;46318;52.716;6.444;2023-05-18T00:22:37;7.10;98.30
60473;DHT22;46318;52.716;6.444;2023-05-18T00:25:07;7.10;98.40
60473;DHT22;46318;52.716;6.444;2023-05-18T00:27:33;7.00;98.50
60473;DHT22;46318;52.716;6.444;2023-05-18T00:29:59;6.90;98.60
60473;DHT22;46318;52.716;6.444;2023-05-18T00:32:25;6.90;98.90
60473;DHT22;46318;52.716;6.444;2023-05-18T00:34:50;6.90;99.00
60473;DHT22;46318;52.716;6.444;2023-05-18T00:37:16;6.80;99.20
60473;DHT22;46318;52.716;6.444;2023-05-18T00:39:42;6.80;99.30
60473;DHT22;46318;52.716;6.444;2023-05-18T00:42:08;6.80;99.40
60473;DHT22;46318;52.716;6.444;2023-05-18T00:44:34;6.80;99.90
60473;DHT22;46318;52.716;6.444;2023-05-18T00:46:59;6.80;99.70
60473;DHT22;46318;52.716;6.444;2023-05-18T00:49:26;6.70;99.80
60473;DHT22;46318;52.716;6.444;2023-05-18T00:51:53;6.70;99.80
60473;DHT22;46318;52.716;6.444;2023-05-18T00:54:19;6.60;99.80
60473;DHT22;46318;52.716;6.444;2023-05-18T00:56:46;6.60;99.80
60473;DHT22;46318;52.716;6.444;2023-05-18T00:59:13;6.60;99.90
60473;DHT22;46318;52.716;6.444;2023-05-18T01:01:40;6.60;99.90
60473;DHT22;46318;52.716;6.444;2023-05-18T01:04:11;6.50;99.90
60473;DHT22;46318;52.716;6.444;2023-05-18T01:06:39;6.50;99.90
60473;DHT22;46318;52.716;6.444;2023-05-18T01:09:08;6.50;99.90
60473;DHT22;46318;52.716;6.444;2023-05-18T01:12:16;6.40;99.90
60473;DHT22;46318;52.716;6.444;2023-05-18T01:15:07;6.40;99.90
60473;DHT22;46318;52.716;6.444;2023-05-18T01:26:22;6.30;99.90
60473;DHT22;46318;52.716;6.444;2023-05-18T01:28:50;6.20;99.90
60473;DHT22;46318;52.716;6.444;2023-05-18T01:31:16;6.20;99.90
60473;DHT22;46318;52.716;6.444;2023-05-18T01:33:43;6.20;99.90
60473;DHT22;46318;52.716;6.444;2023-05-18T01:36:09;6.20;99.90
60473;DHT22;46318;52.716;6.444;2023-05-18T01:38:36;6.10;99.90
60473;DHT22;46318;52.716;6.444;2023-05-18T01:41:10;6.10;99.90
60473;DHT22;46318;52.716;6.444;2023-05-18T01:44:05;6.10;99.90
60473;DHT22;46318;52.716;6.444;2023-05-18T01:46:48;6.10;99.90
60473;DHT22;46318;52.716;6.444;2023-05-18T01:49:42;6.00;99.90
60473;DHT22;46318;52.716;6.444;2023-05-18T01:52:23;6.00;99.90
60473;DHT22;46318;52.716;6.444;2023-05-18T01:55:03;6.00;99.90
60473;DHT22;46318;52.716;6.444;2023-05-18T01:57:32;5.90;99.90
60473;DHT22;46318;52.716;6.444;2023-05-18T01:59:58;5.90;99.90
60473;DHT22;46318;52.716;6.444;2023-05-18T02:02:25;5.90;99.90
60473;DHT22;46318;52.716;6.444;2023-05-18T02:04:51;5.90;99.90
60473;DHT22;46318;52.716;6.444;2023-05-18T02:07:17;5.80;99.90
60473;DHT22;46318;52.716;6.444;2023-05-18T02:09:43;5.80;99.90
60473;DHT22;46318;52.716;6.444;2023-05-18T02:12:10;5.80;99.90
60473;DHT22;46318;52.716;6.444;2023-05-18T02:14:36;5.80;99.90
60473;DHT22;46318;52.716;6.444;2023-05-18T02:17:02;5.70;99.90
60473;DHT22;46318;52.716;6.444;2023-05-18T02:19:28;5.70;99.90
60473;DHT22;46318;52.716;6.444;2023-05-18T02:21:58;5.70;99.90
60473;DHT22;46318;52.716;6.444;2023-05-18T02:24:24;5.60;99.90
60473;DHT22;46318;52.716;6.444;2023-05-18T02:26:50;5.60;99.90
60473;DHT22;46318;52.716;6.444;2023-05-18T02:29:16;5.60;99.90
60473;DHT22;46318;52.716;6.444;2023-05-18T02:31:42;5.50;99.90
60473;DHT22;46318;52.716;6.444;2023-05-18T02:34:08;5.50;99.90
60473;DHT22;46318;52.716;6.444;2023-05-18T02:36:35;5.50;99.90
60473;DHT22;46318;52.716;6.444;2023-05-18T02:39:05;5.50;99.90
60473;DHT22;46318;52.716;6.444;2023-05-18T02:41:35;5.50;99.90
60473;DHT22;46318;52.716;6.444;2023-05-18T02:44:04;5.50;99.90
60473;DHT22;46318;52.716;6.444;2023-05-18T02:46:31;5.50;99.90
60473;DHT22;46318;52.716;6.444;2023-05-18T02:48:57;5.50;99.90
60473;DHT22;46318;52.716;6.444;2023-05-18T02:51:24;5.50;99.90
60473;DHT22;46318;52.716;6.444;2023-05-18T02:53:50;5.50;99.90
60473;DHT22;46318;52.716;6.444;2023-05-18T02:56:17;5.50;99.90
60473;DHT22;46318;52.716;6.444;2023-05-18T02:58:43;5.50;99.90
60473;DHT22;46318;52.716;6.444;2023-05-18T03:01:09;5.50;99.90
60473;DHT22;46318;52.716;6.444;2023-05-18T03:03:37;5.50;99.90
60473;DHT22;46318;52.716;6.444;2023-05-18T03:06:04;5.50;99.90
60473;DHT22;46318;52.716;6.444;2023-05-18T03:08:32;5.40;99.90
60473;DHT22;46318;52.716;6.444;2023-05-18T03:10:58;5.40;99.90
60473;DHT22;46318;52.716;6.444;2023-05-18T03:13:24;5.40;99.90
60473;DHT22;46318;52.716;6.444;2023-05-18T03:15:50;5.40;99.90
60473;DHT22;46318;52.716;6.444;2023-05-18T03:18:17;5.40;99.90
60473;DHT22;46318;52.716;6.444;2023-05-18T03:20:46;5.40;99.90
60473;DHT22;46318;52.716;6.444;2023-05-18T03:23:12;5.30;99.90
60473;DHT22;46318;52.716;6.444;2023-05-18T03:25:38;5.30;99.90
60473;DHT22;46318;52.716;6.444;2023-05-18T03:28:03;5.30;99.90
60473;DHT22;46318;52.716;6.444;2023-05-18T03:30:33;5.30;99.90
60473;DHT22;46318;52.716;6.444;2023-05-18T03:33:00;5.30;99.90
60473;DHT22;46318;52.716;6.444;2023-05-18T03:35:26;5.30;99.90
60473;DHT22;46318;52.716;6.444;2023-05-18T03:37:52;5.30;99.90
60473;DHT22;46318;52.716;6.444;2023-05-18T03:40:19;5.30;99.90
60473;DHT22;46318;52.716;6.444;2023-05-18T03:42:44;5.30;99.90
60473;DHT22;46318;52.716;6.444;2023-05-18T03:45:11;5.30;99.90
60473;DHT22;46318;52.716;6.444;2023-05-18T03:47:37;5.30;99.90
60473;DHT22;46318;52.716;6.444;2023-05-18T03:50:04;5.30;99.90
60473;DHT22;46318;52.716;6.444;2023-05-18T03:52:32;5.20;99.90
60473;DHT22;46318;52.716;6.444;2023-05-18T03:54:59;5.20;99.90
60473;DHT22;46318;52.716;6.444;2023-05-18T03:57:27;5.20;99.90
60473;DHT22;46318;52.716;6.444;2023-05-18T03:59:53;5.20;99.90
60473;DHT22;46318;52.716;6.444;2023-05-18T04:02:20;5.20;99.90
60473;DHT22;46318;52.716;6.444;2023-05-18T04:04:46;5.20;99.90
60473;DHT22;46318;52.716;6.444;2023-05-18T04:07:13;5.20;99.90
60473;DHT22;46318;52.716;6.444;2023-05-18T04:09:42;5.20;99.90
60473;DHT22;46318;52.716;6.444;2023-05-18T04:12:09;5.20;99.90
60473;DHT22;46318;52.716;6.444;2023-05-18T04:14:36;5.20;99.90
60473;DHT22;46318;52.716;6.444;2023-05-18T04:17:02;5.20;99.90
60473;DHT22;46318;52.716;6.444;2023-05-18T04:19:34;5.20;99.90
60473;DHT22;46318;52.716;6.444;2023-05-18T04:22:02;5.20;99.90
60473;DHT22;46318;52.716;6.444;2023-05-18T04:24:31;5.20;99.90
60473;DHT22;46318;52.716;6.444;2023-05-18T04:26:59;5.20;99.90
60473;DHT22;46318;52.716;6.444;2023-05-18T04:29:28;5.20;99.90
60473;DHT22;46318;52.716;6.444;2023-05-18T04:31:57;5.20;99.90
60473;DHT22;46318;52.716;6.444;2023-05-18T04:34:29;5.20;99.90
60473;DHT22;46318;52.716;6.444;2023-05-18T04:36:56;5.20;99.90
60473;DHT22;46318;52.716;6.444;2023-05-18T04:39:25;5.20;99.90
60473;DHT22;46318;52.716;6.444;2023-05-18T04:41:52;5.30;99.90
60473;DHT22;46318;52.716;6.444;2023-05-18T04:44:25;5.30;99.90
60473;DHT22;46318;52.716;6.444;2023-05-18T04:46:52;5.30;99.90
60473;DHT22;46318;52.716;6.444;2023-05-18T04:49:19;5.30;99.90
60473;DHT22;46318;52.716;6.444;2023-05-18T04:51:51;5.40;99.90
60473;DHT22;46318;52.716;6.444;2023-05-18T04:54:27;5.40;99.90
60473;DHT22;46318;52.716;6.444;2023-05-18T04:56:56;5.40;99.90
60473;DHT22;46318;52.716;6.444;2023-05-18T04:59:22;5.40;99.90
60473;DHT22;46318;52.716;6.444;2023-05-18T05:01:52;5.50;99.90
60473;DHT22;46318;52.716;6.444;2023-05-18T05:04:19;5.50;99.90
60473;DHT22;46318;52.716;6.444;2023-05-18T05:06:46;5.60;99.90
60473;DHT22;46318;52.716;6.444;2023-05-18T05:09:12;5.60;99.90
60473;DHT22;46318;52.716;6.444;2023-05-18T05:11:39;5.60;99.90
60473;DHT22;46318;52.716;6.444;2023-05-18T05:14:06;5.70;99.90
60473;DHT22;46318;52.716;6.444;2023-05-18T05:16:32;5.80;99.90
60473;DHT22;46318;52.716;6.444;2023-05-18T05:18:58;5.80;99.90
60473;DHT22;46318;52.716;6.444;2023-05-18T05:21:24;5.90;99.90
60473;DHT22;46318;52.716;6.444;2023-05-18T05:23:51;5.90;99.90
60473;DHT22;46318;52.716;6.444;2023-05-18T05:26:17;6.00;99.90
60473;DHT22;46318;52.716;6.444;2023-05-18T05:28:44;6.10;99.90
60473;DHT22;46318;52.716;6.444;2023-05-18T05:31:10;6.10;99.90
60473;DHT22;46318;52.716;6.444;2023-05-18T05:33:36;6.20;99.90
60473;DHT22;46318;52.716;6.444;2023-05-18T05:36:02;6.30;99.90
60473;DHT22;46318;52.716;6.444;2023-05-18T05:38:30;6.30;99.90
60473;DHT22;46318;52.716;6.444;2023-05-18T05:40:56;6.30;99.90
60473;DHT22;46318;52.716;6.444;2023-05-18T05:43:22;6.40;99.90
60473;DHT22;46318;52.716;6.444;2023-05-18T05:45:48;6.50;99.90
60473;DHT22;46318;52.716;6.444;2023-05-18T05:48:14;6.60;99.90
60473;DHT22;46318;52.716;6.444;2023-05-18T05:50:40;6.60;99.90
60473;DHT22;46318;52.716;6.444;2023-05-18T05:53:06;6.60;99.90
60473;DHT22;46318;52.716;6.444;2023-05-18T05:55:33;6.70;99.90
60473;DHT22;46318;52.716;6.444;2023-05-18T05:58:05;6.80;99.90
60473;DHT22;46318;52.716;6.444;2023-05-18T06:00:33;6.80;99.90
60473;DHT22;46318;52.716;6.444;2023-05-18T06:02:59;6.90;99.90
60473;DHT22;46318;52.716;6.444;2023-05-18T06:05:25;7.00;99.90
60473;DHT22;46318;52.716;6.444;2023-05-18T06:07:51;7.00;99.90
60473;DHT22;46318;52.716;6.444;2023-05-18T06:10:17;7.10;99.80
60473;DHT22;46318;52.716;6.444;2023-05-18T06:12:43;7.10;99.60
60473;DHT22;46318;52.716;6.444;2023-05-18T06:15:09;7.20;99.50
60473;DHT22;46318;52.716;6.444;2023-05-18T06:17:35;7.20;99.40
60473;DHT22;46318;52.716;6.444;2023-05-18T06:20:01;7.30;99.20
60473;DHT22;46318;52.716;6.444;2023-05-18T06:22:27;7.40;98.80
60473;DHT22;46318;52.716;6.444;2023-05-18T06:24:53;7.40;98.70
60473;DHT22;46318;52.716;6.444;2023-05-18T06:27:18;7.40;98.50
60473;DHT22;46318;52.716;6.444;2023-05-18T06:29:44;7.50;98.50
60473;DHT22;46318;52.716;6.444;2023-05-18T06:32:11;7.50;98.50
60473;DHT22;46318;52.716;6.444;2023-05-18T06:34:37;7.60;98.50
60473;DHT22;46318;52.716;6.444;2023-05-18T06:37:04;7.70;98.40
60473;DHT22;46318;52.716;6.444;2023-05-18T06:39:30;7.70;98.00
60473;DHT22;46318;52.716;6.444;2023-05-18T06:41:56;7.80;97.90
60473;DHT22;46318;52.716;6.444;2023-05-18T06:44:22;7.90;97.70
60473;DHT22;46318;52.716;6.444;2023-05-18T06:46:47;7.90;97.40
60473;DHT22;46318;52.716;6.444;2023-05-18T06:49:13;8.00;97.00
60473;DHT22;46318;52.716;6.444;2023-05-18T06:51:39;8.10;96.60
60473;DHT22;46318;52.716;6.444;2023-05-18T06:54:07;8.10;96.30
60473;DHT22;46318;52.716;6.444;2023-05-18T06:56:33;8.20;96.30
60473;DHT22;46318;52.716;6.444;2023-05-18T06:58:59;8.20;96.10
60473;DHT22;46318;52.716;6.444;2023-05-18T07:01:24;8.30;95.90
60473;DHT22;46318;52.716;6.444;2023-05-18T07:03:50;8.30;95.90
60473;DHT22;46318;52.716;6.444;2023-05-18T07:06:16;8.40;95.50
60473;DHT22;46318;52.716;6.444;2023-05-18T07:08:43;8.50;95.60
60473;DHT22;46318;52.716;6.444;2023-05-18T07:11:10;8.50;95.40
60473;DHT22;46318;52.716;6.444;2023-05-18T07:13:35;8.60;94.80
60473;DHT22;46318;52.716;6.444;2023-05-18T07:16:01;8.70;94.50
60473;DHT22;46318;52.716;6.444;2023-05-18T07:18:27;8.70;94.20
60473;DHT22;46318;52.716;6.444;2023-05-18T07:20:53;8.80;94.00
60473;DHT22;46318;52.716;6.444;2023-05-18T07:23:19;8.90;93.90
60473;DHT22;46318;52.716;6.444;2023-05-18T07:25:45;9.00;93.80
60473;DHT22;46318;52.716;6.444;2023-05-18T07:28:11;9.10;93.90
60473;DHT22;46318;52.716;6.444;2023-05-18T07:30:37;9.10;93.60
60473;DHT22;46318;52.716;6.444;2023-05-18T07:33:02;9.20;93.40
60473;DHT22;46318;52.716;6.444;2023-05-18T07:35:28;9.30;93.00
60473;DHT22;46318;52.716;6.444;2023-05-18T07:37:55;9.30;92.90
60473;DHT22;46318;52.716;6.444;2023-05-18T07:40:21;9.40;92.70
60473;DHT22;46318;52.716;6.444;2023-05-18T07:42:46;9.40;92.40
60473;DHT22;46318;52.716;6.444;2023-05-18T07:45:12;9.50;92.10
60473;DHT22;46318;52.716;6.444;2023-05-18T07:47:38;9.50;92.10
60473;DHT22;46318;52.716;6.444;2023-05-18T07:50:05;9.60;92.10
60473;DHT22;46318;52.716;6.444;2023-05-18T07:52:31;9.70;91.90
60473;DHT22;46318;52.716;6.444;2023-05-18T07:54:57;9.70;91.90
60473;DHT22;46318;52.716;6.444;2023-05-18T07:57:24;9.70;91.40
60473;DHT22;46318;52.716;6.444;2023-05-18T07:59:50;9.80;91.50
60473;DHT22;46318;52.716;6.444;2023-05-18T08:02:17;9.90;91.30
60473;DHT22;46318;52.716;6.444;2023-05-18T08:04:44;9.90;91.10
60473;DHT22;46318;52.716;6.444;2023-05-18T08:07:11;9.90;91.00
60473;DHT22;46318;52.716;6.444;2023-05-18T08:09:37;9.90;90.90
60473;DHT22;46318;52.716;6.444;2023-05-18T08:12:04;10.00;90.90
60473;DHT22;46318;52.716;6.444;2023-05-18T08:14:30;10.00;90.60
60473;DHT22;46318;52.716;6.444;2023-05-18T08:16:56;10.00;90.70
60473;DHT22;46318;52.716;6.444;2023-05-18T08:19:22;10.10;90.60
60473;DHT22;46318;52.716;6.444;2023-05-18T08:21:50;10.10;90.50
60473;DHT22;46318;52.716;6.444;2023-05-18T08:24:16;10.20;90.60
60473;DHT22;46318;52.716;6.444;2023-05-18T08:26:42;10.20;90.40
60473;DHT22;46318;52.716;6.444;2023-05-18T08:29:07;10.30;90.30
60473;DHT22;46318;52.716;6.444;2023-05-18T08:31:37;10.40;90.30
60473;DHT22;46318;52.716;6.444;2023-05-18T08:34:04;10.50;90.10
60473;DHT22;46318;52.716;6.444;2023-05-18T08:36:34;10.50;89.60
60473;DHT22;46318;52.716;6.444;2023-05-18T08:39:01;10.60;89.40
60473;DHT22;46318;52.716;6.444;2023-05-18T08:41:43;10.60;89.00
60473;DHT22;46318;52.716;6.444;2023-05-18T08:44:23;10.60;88.20
60473;DHT22;46318;52.716;6.444;2023-05-18T08:46:51;10.70;87.70
60473;DHT22;46318;52.716;6.444;2023-05-18T08:49:19;10.80;87.60
60473;DHT22;46318;52.716;6.444;2023-05-18T08:51:47;10.80;87.70
60473;DHT22;46318;52.716;6.444;2023-05-18T08:54:20;11.00;87.80
60473;DHT22;46318;52.716;6.444;2023-05-18T08:56:47;11.10;86.80
60473;DHT22;46318;52.716;6.444;2023-05-18T08:59:24;11.20;86.50
60473;DHT22;46318;52.716;6.444;2023-05-18T09:01:52;11.30;86.20
60473;DHT22;46318;52.716;6.444;2023-05-18T09:04:20;11.50;85.20
60473;DHT22;46318;52.716;6.444;2023-05-18T09:06:47;11.60;84.90
60473;DHT22;46318;52.716;6.444;2023-05-18T09:09:14;11.70;82.70
60473;DHT22;46318;52.716;6.444;2023-05-18T09:11:41;11.80;82.20
60473;DHT22;46318;52.716;6.444;2023-05-18T09:14:07;11.80;82.30
60473;DHT22;46318;52.716;6.444;2023-05-18T09:16:32;11.90;81.30
60473;DHT22;46318;52.716;6.444;2023-05-18T09:18:59;11.90;81.30
60473;DHT22;46318;52.716;6.444;2023-05-18T09:21:25;12.00;81.40
60473;DHT22;46318;52.716;6.444;2023-05-18T09:23:51;12.10;82.50
60473;DHT22;46318;52.716;6.444;2023-05-18T09:26:18;12.20;81.80
60473;DHT22;46318;52.716;6.444;2023-05-18T09:28:50;12.30;80.80
60473;DHT22;46318;52.716;6.444;2023-05-18T09:31:19;12.30;79.10
60473;DHT22;46318;52.716;6.444;2023-05-18T09:33:46;12.50;79.70
60473;DHT22;46318;52.716;6.444;2023-05-18T09:36:13;12.50;79.10
60473;DHT22;46318;52.716;6.444;2023-05-18T09:38:44;12.60;78.30
60473;DHT22;46318;52.716;6.444;2023-05-18T09:41:17;12.60;76.30
60473;DHT22;46318;52.716;6.444;2023-05-18T09:43:44;12.60;76.00
60473;DHT22;46318;52.716;6.444;2023-05-18T09:46:12;12.70;77.00
60473;DHT22;46318;52.716;6.444;2023-05-18T09:48:47;12.80;77.10
60473;DHT22;46318;52.716;6.444;2023-05-18T09:51:15;12.80;75.90
60473;DHT22;46318;52.716;6.444;2023-05-18T09:54:02;12.90;75.80
60473;DHT22;46318;52.716;6.444;2023-05-18T09:56:35;13.00;74.60
60473;DHT22;46318;52.716;6.444;2023-05-18T09:59:12;13.10;74.70
60473;DHT22;46318;52.716;6.444;2023-05-18T10:01:55;13.20;71.60
60473;DHT22;46318;52.716;6.444;2023-05-18T10:04:54;13.30;72.50
60473;DHT22;46318;52.716;6.444;2023-05-18T10:07:21;13.40;71.30
60473;DHT22;46318;52.716;6.444;2023-05-18T10:10:00;13.40;73.70
60473;DHT22;46318;52.716;6.444;2023-05-18T10:12:28;13.50;73.40
60473;DHT22;46318;52.716;6.444;2023-05-18T10:14:53;13.70;74.40
60473;DHT22;46318;52.716;6.444;2023-05-18T10:17:20;13.70;72.60
60473;DHT22;46318;52.716;6.444;2023-05-18T10:19:49;13.90;71.90
60473;DHT22;46318;52.716;6.444;2023-05-18T10:22:19;13.90;70.50
60473;DHT22;46318;52.716;6.444;2023-05-18T10:24:50;14.00;71.10
60473;DHT22;46318;52.716;6.444;2023-05-18T10:27:22;14.00;69.40
60473;DHT22;46318;52.716;6.444;2023-05-18T10:29:53;14.10;69.80
60473;DHT22;46318;52.716;6.444;2023-05-18T10:32:22;14.20;68.80
60473;DHT22;46318;52.716;6.444;2023-05-18T10:34:51;14.20;69.00
60473;DHT22;46318;52.716;6.444;2023-05-18T10:37:21;14.30;67.10
60473;DHT22;46318;52.716;6.444;2023-05-18T10:39:50;14.30;67.00
60473;DHT22;46318;52.716;6.444;2023-05-18T10:42:17;14.40;64.60
60473;DHT22;46318;52.716;6.444;2023-05-18T10:44:44;14.50;65.00
60473;DHT22;46318;52.716;6.444;2023-05-18T10:47:13;14.60;65.70
60473;DHT22;46318;52.716;6.444;2023-05-18T10:49:42;14.70;61.50
60473;DHT22;46318;52.716;6.444;2023-05-18T10:52:09;14.70;61.80
60473;DHT22;46318;52.716;6.444;2023-05-18T10:54:36;14.70;62.10
60473;DHT22;46318;52.716;6.444;2023-05-18T10:57:03;14.80;63.10
60473;DHT22;46318;52.716;6.444;2023-05-18T10:59:29;14.80;61.70
60473;DHT22;46318;52.716;6.444;2023-05-18T11:01:55;14.90;60.20
60473;DHT22;46318;52.716;6.444;2023-05-18T11:04:25;14.90;59.20
60473;DHT22;46318;52.716;6.444;2023-05-18T11:06:58;14.90;59.80
60473;DHT22;46318;52.716;6.444;2023-05-18T11:09:28;15.00;57.50
60473;DHT22;46318;52.716;6.444;2023-05-18T11:11:58;15.10;58.70
60473;DHT22;46318;52.716;6.444;2023-05-18T11:14:25;15.10;58.40
60473;DHT22;46318;52.716;6.444;2023-05-18T11:22:47;15.30;55.00
60473;DHT22;46318;52.716;6.444;2023-05-18T11:25:37;15.40;58.10
60473;DHT22;46318;52.716;6.444;2023-05-18T11:28:06;15.40;56.70
60473;DHT22;46318;52.716;6.444;2023-05-18T11:33:16;15.60;57.50
60473;DHT22;46318;52.716;6.444;2023-05-18T11:36:05;15.60;56.30
60473;DHT22;46318;52.716;6.444;2023-05-18T11:47:13;15.90;56.10
60473;DHT22;46318;52.716;6.444;2023-05-18T11:49:44;16.00;54.90
60473;DHT22;46318;52.716;6.444;2023-05-18T11:52:18;16.00;53.50
60473;DHT22;46318;52.716;6.444;2023-05-18T11:54:53;16.10;55.20
60473;DHT22;46318;52.716;6.444;2023-05-18T11:57:26;16.20;55.20
60473;DHT22;46318;52.716;6.444;2023-05-18T12:00:08;16.40;53.60
60473;DHT22;46318;52.716;6.444;2023-05-18T12:02:44;16.40;53.60
60473;DHT22;46318;52.716;6.444;2023-05-18T12:05:11;16.50;53.10
60473;DHT22;46318;52.716;6.444;2023-05-18T12:07:38;16.50;53.00
60473;DHT22;46318;52.716;6.444;2023-05-18T12:10:12;16.60;52.90
60473;DHT22;46318;52.716;6.444;2023-05-18T12:12:42;16.60;52.60
60473;DHT22;46318;52.716;6.444;2023-05-18T12:15:10;16.70;53.00
60473;DHT22;46318;52.716;6.444;2023-05-18T12:17:46;16.80;52.00
60473;DHT22;46318;52.716;6.444;2023-05-18T12:20:18;16.80;51.50
60473;DHT22;46318;52.716;6.444;2023-05-18T12:22:47;16.80;51.70
60473;DHT22;46318;52.716;6.444;2023-05-18T12:25:21;16.80;51.20
60473;DHT22;46318;52.716;6.444;2023-05-18T12:27:48;16.90;51.70
60473;DHT22;46318;52.716;6.444;2023-05-18T12:30:23;17.00;51.20
60473;DHT22;46318;52.716;6.444;2023-05-18T12:32:52;17.10;50.60
60473;DHT22;46318;52.716;6.444;2023-05-18T12:35:24;17.20;50.60
60473;DHT22;46318;52.716;6.444;2023-05-18T12:37:51;17.20;49.80
60473;DHT22;46318;52.716;6.444;2023-05-18T12:40:21;17.30;49.50
60473;DHT22;46318;52.716;6.444;2023-05-18T12:42:56;17.40;49.40
60473;DHT22;46318;52.716;6.444;2023-05-18T12:45:31;17.40;48.60
60473;DHT22;46318;52.716;6.444;2023-05-18T12:48:05;17.50;48.80
60473;DHT22;46318;52.716;6.444;2023-05-18T12:50:31;17.60;48.60
60473;DHT22;46318;52.716;6.444;2023-05-18T12:52:57;17.60;48.40
60473;DHT22;46318;52.716;6.444;2023-05-18T12:55:23;17.60;47.80
60473;DHT22;46318;52.716;6.444;2023-05-18T12:58:02;17.70;48.10
60473;DHT22;46318;52.716;6.444;2023-05-18T13:00:36;17.80;47.80
60473;DHT22;46318;52.716;6.444;2023-05-18T13:03:06;17.90;48.60
60473;DHT22;46318;52.716;6.444;2023-05-18T13:05:33;18.00;48.20
60473;DHT22;46318;52.716;6.444;2023-05-18T13:07:59;18.10;47.90
60473;DHT22;46318;52.716;6.444;2023-05-18T13:10:29;18.20;47.10
60473;DHT22;46318;52.716;6.444;2023-05-18T13:12:59;18.20;46.70
60473;DHT22;46318;52.716;6.444;2023-05-18T13:15:33;18.20;46.80
60473;DHT22;46318;52.716;6.444;2023-05-18T13:18:09;18.30;46.50
60473;DHT22;46318;52.716;6.444;2023-05-18T13:20:53;18.30;46.10
60473;DHT22;46318;52.716;6.444;2023-05-18T13:23:26;18.40;45.80
60473;DHT22;46318;52.716;6.444;2023-05-18T13:25:53;18.40;45.40
60473;DHT22;46318;52.716;6.444;2023-05-18T13:28:20;18.50;45.70
60473;DHT22;46318;52.716;6.444;2023-05-18T13:30:48;18.50;45.30
60473;DHT22;46318;52.716;6.444;2023-05-18T13:33:15;18.60;44.90
60473;DHT22;46318;52.716;6.444;2023-05-18T13:35:43;18.60;44.60
60473;DHT22;46318;52.716;6.444;2023-05-18T13:38:10;18.60;45.00
60473;DHT22;46318;52.716;6.444;2023-05-18T13:40:38;18.60;44.70
60473;DHT22;46318;52.716;6.444;2023-05-18T13:43:04;18.70;44.90
60473;DHT22;46318;52.716;6.444;2023-05-18T13:45:31;18.60;44.40
60473;DHT22;46318;52.716;6.444;2023-05-18T13:47:57;18.50;44.70
60473;DHT22;46318;52.716;6.444;2023-05-18T13:50:24;18.50;45.20
60473;DHT22;46318;52.716;6.444;2023-05-18T13:52:51;18.60;45.60
60473;DHT22;46318;52.716;6.444;2023-05-18T13:55:17;18.70;45.60
60473;DHT22;46318;52.716;6.444;2023-05-18T13:57:44;18.80;45.60
60473;DHT22;46318;52.716;6.444;2023-05-18T14:00:11;18.90;45.70
60473;DHT22;46318;52.716;6.444;2023-05-18T14:02:42;18.90;45.30
60473;DHT22;46318;52.716;6.444;2023-05-18T14:05:09;18.80;45.00
60473;DHT22;46318;52.716;6.444;2023-05-18T14:07:36;18.80;45.10
60473;DHT22;46318;52.716;6.444;2023-05-18T14:10:04;18.80;45.30
60473;DHT22;46318;52.716;6.444;2023-05-18T14:12:31;18.80;45.40
60473;DHT22;46318;52.716;6.444;2023-05-18T14:14:57;18.80;44.50
60473;DHT22;46318;52.716;6.444;2023-05-18T14:17:24;18.70;44.40
60473;DHT22;46318;52.716;6.444;2023-05-18T14:19:51;18.70;44.30
60473;DHT22;46318;52.716;6.444;2023-05-18T14:22:18;18.70;44.30
60473;DHT22;46318;52.716;6.444;2023-05-18T14:24:44;18.80;44.80
60473;DHT22;46318;52.716;6.444;2023-05-18T14:27:10;18.90;44.80
60473;DHT22;46318;52.716;6.444;2023-05-18T14:29:35;19.00;44.40
60473;DHT22;46318;52.716;6.444;2023-05-18T14:32:01;19.00;44.30
60473;DHT22;46318;52.716;6.444;2023-05-18T14:34:27;19.00;44.10
60473;DHT22;46318;52.716;6.444;2023-05-18T14:36:53;19.00;44.10
60473;DHT22;46318;52.716;6.444;2023-05-18T14:39:19;19.00;44.40
60473;DHT22;46318;52.716;6.444;2023-05-18T14:41:45;19.10;44.20
60473;DHT22;46318;52.716;6.444;2023-05-18T14:44:13;19.10;44.10
60473;DHT22;46318;52.716;6.444;2023-05-18T14:46:39;19.10;43.80
60473;DHT22;46318;52.716;6.444;2023-05-18T14:49:06;19.00;43.90
60473;DHT22;46318;52.716;6.444;2023-05-18T14:51:32;19.00;44.40
60473;DHT22;46318;52.716;6.444;2023-05-18T14:53:58;19.00;44.20
60473;DHT22;46318;52.716;6.444;2023-05-18T14:56:24;19.10;44.30
60473;DHT22;46318;52.716;6.444;2023-05-18T14:58:51;19.20;44.30
60473;DHT22;46318;52.716;6.444;2023-05-18T15:01:17;19.20;43.70
60473;DHT22;46318;52.716;6.444;2023-05-18T15:03:43;19.20;43.40
60473;DHT22;46318;52.716;6.444;2023-05-18T15:06:09;19.10;43.20
60473;DHT22;46318;52.716;6.444;2023-05-18T15:08:35;19.20;43.30
60473;DHT22;46318;52.716;6.444;2023-05-18T15:11:01;19.30;43.50
60473;DHT22;46318;52.716;6.444;2023-05-18T15:13:27;19.30;43.50
60473;DHT22;46318;52.716;6.444;2023-05-18T15:15:52;19.30;43.20
60473;DHT22;46318;52.716;6.444;2023-05-18T15:18:18;19.30;43.20
60473;DHT22;46318;52.716;6.444;2023-05-18T15:20:44;19.40;43.10
60473;DHT22;46318;52.716;6.444;2023-05-18T15:23:11;19.40;42.80
60473;DHT22;46318;52.716;6.444;2023-05-18T15:25:38;19.40;43.60
60473;DHT22;46318;52.716;6.444;2023-05-18T15:28:05;19.50;43.90
60473;DHT22;46318;52.716;6.444;2023-05-18T15:30:31;19.40;44.20
60473;DHT22;46318;52.716;6.444;2023-05-18T15:32:58;19.40;43.40
60473;DHT22;46318;52.716;6.444;2023-05-18T15:35:27;19.30;43.90
60473;DHT22;46318;52.716;6.444;2023-05-18T15:37:53;19.30;44.20
60473;DHT22;46318;52.716;6.444;2023-05-18T15:40:20;19.30;44.60
60473;DHT22;46318;52.716;6.444;2023-05-18T15:42:46;19.40;45.10
60473;DHT22;46318;52.716;6.444;2023-05-18T15:45:12;19.30;44.70
60473;DHT22;46318;52.716;6.444;2023-05-18T15:47:38;19.30;45.20
60473;DHT22;46318;52.716;6.444;2023-05-18T15:50:04;19.20;45.30
60473;DHT22;46318;52.716;6.444;2023-05-18T15:52:30;19.10;45.30
60473;DHT22;46318;52.716;6.444;2023-05-18T15:54:56;19.10;45.60
60473;DHT22;46318;52.716;6.444;2023-05-18T15:57:23;19.00;45.40
60473;DHT22;46318;52.716;6.444;2023-05-18T15:59:49;18.90;45.50
60473;DHT22;46318;52.716;6.444;2023-05-18T16:02:15;18.90;45.60
60473;DHT22;46318;52.716;6.444;2023-05-18T16:04:41;18.80;46.00
60473;DHT22;46318;52.716;6.444;2023-05-18T16:07:06;18.80;46.40
60473;DHT22;46318;52.716;6.444;2023-05-18T16:09:32;18.80;46.60